Aérodrome :
LOGIN :

S'inscrire | Disclaimer

   EN    FR    IT 

 










Légende :    VFR   VFR Marginal   IFR   IFR Intensif   IFR Très Intensif
Visi : 
Plafond : 
>= 8 km
>= 3000ft
5 à 8 km
1000 à 3000 ft
1500m à 5 km
500 à 1000 ft
800 à 1500m
200 à 500 ft
< 800m
< 200 ft
Symboles :   Orages  Brouillard  Fortes neiges  Fortes précipitations  Vent > 20 kt
SIGMETs :   Divers  Orages  Givrage  Turbulence  Onde Orograph.  Cendres Volcan.







- Altitude de l'aérodrome : 72 ft
- Code IATA : UDE


EHVK - Volkel Airbase

DERNIER METAR :
  • 200855Z AUTO 24008KT 210V330 9999 FEW072 OVC077 23/14 Q1010 BLU

METARs EXPIRÉS :
  • 200825Z AUTO 25011KT 210V300 9999 FEW063 BKN069 OVC081 23/15 Q1010 BLU
  • 200755Z AUTO 24008KT 220V290 9999 FEW064 BKN071 BKN078 23/16 Q1010 BLU
  • 200725Z AUTO 19009KT 150V230 9999 SCT065 OVC071 23/15 Q1009 BLU
  • 200655Z AUTO 19010KT 150V230 9999 OVC100 22/15 Q1009 BLU
  • 200625Z AUTO 18010KT 140V210 9999 OVC065 22/15 Q1009 BLU

TAF TAF EHVK
Valide du 20 à 09h jusqu'au 20 à 21h UTC


200806Z 2009/2021 18008KT CAVOK
BECMG 2009/2011 24010KT
TEMPO 2009/2019 2515G25KT 4000 SHRA SCT040CB
PROB40
TEMPO 2013/2018 25020G45KT 2500 TSRA TSRAGR
Pas de NOTAMs connus pour ce terrain.



MET'MAP, la Météo Aéronautique d'un coup d'oeil ! - Copyright ORBIFLY Décembre 2007 - Disclaimer

ORBIFLY MET'MAP TEAM :

Programmation & Développement : Alexandra Zaïnal
Conception & Développement : Baudouin d'Aumeries
Co-Programmation & Développement : Marc-Olivier Méhu
Soutien technique & logistique : Manuel Goepfert

Contact : metmap@orbifly.com




SOURCES & CREDITS :

   NOAA